Time;durP1;ratioP1;P1;durP2;ratioP2;P2;SDS_P1;SDS_P2;PMS_P1;PMS_P2;Temp;Humidity;BMP_temperature;BMP_pressure;BME280_temperature;BME280_humidity;BME280_pressure;Samples;Min_cycle;Max_cycle;Signal;HPM_P1;HPM_P2
2021/07/22 00:01:04;;;;;;;19.25;10.75;;;;;;;15.03;83.82;98629.28;1622460;87;21087;-70
2021/07/22 00:03:30;;;;;;;20.23;10.43;;;;;;;14.98;84.64;98633.45;1606451;86;20963;-71
2021/07/22 00:05:56;;;;;;;19.00;10.78;;;;;;;15.00;83.54;98629.87;1622503;87;20986;-72
2021/07/22 00:08:22;;;;;;;17.98;10.50;;;;;;;14.98;83.69;98632.09;1615630;87;20878;-72
2021/07/22 00:10:50;;;;;;;14.73;9.65;;;;;;;15.01;83.87;98630.13;1630927;88;20980;-72
2021/07/22 00:13:16;;;;;;;17.73;10.90;;;;;;;14.99;84.11;98620.87;1626887;88;21317;-72
2021/07/22 00:15:41;;;;;;;17.20;10.38;;;;;;;15.04;84.08;98628.17;1614072;87;21047;-72
2021/07/22 00:18:08;;;;;;;17.23;9.80;;;;;;;15.08;84.78;98631.39;1612303;87;20917;-72
2021/07/22 00:20:33;;;;;;;15.70;10.88;;;;;;;15.03;85.78;98625.99;1609466;87;21083;-73
2021/07/22 00:22:59;;;;;;;15.63;11.70;;;;;;;14.99;85.98;98620.87;1611081;87;21641;-72
2021/07/22 00:25:25;;;;;;;14.13;10.88;;;;;;;14.96;85.07;98618.75;1577606;90;21352;-72
2021/07/22 00:27:51;;;;;;;22.95;12.40;;;;;;;14.91;84.96;98623.70;1604581;88;20921;-76
2021/07/22 00:30:17;;;;;;;17.42;10.65;;;;;;;14.87;84.63;98622.69;1604871;89;20932;-75
2021/07/22 00:32:43;;;;;;;17.70;10.85;;;;;;;14.87;85.68;98618.59;1605073;88;21020;-72
2021/07/22 00:35:10;;;;;;;16.05;9.25;;;;;;;14.82;85.61;98617.28;1555546;91;20924;-72
2021/07/22 00:37:36;;;;;;;14.87;9.83;;;;;;;14.78;86.03;98618.14;1609284;87;21441;-72
2021/07/22 00:40:03;;;;;;;16.85;9.80;;;;;;;14.74;85.47;98615.20;1608920;89;20996;-72
2021/07/22 00:42:51;;;;;;;18.48;9.53;;;;;;;14.72;86.25;98617.41;1608536;87;21001;-72
2021/07/22 00:45:17;;;;;;;16.15;9.50;;;;;;;14.74;85.82;98619.30;1609901;89;21072;-76
2021/07/22 00:47:43;;;;;;;15.70;10.23;;;;;;;14.69;84.43;98613.89;1610087;87;21048;-73
2021/07/22 00:50:10;;;;;;;16.60;10.30;;;;;;;14.64;85.51;98613.97;1609184;89;21843;-73
2021/07/22 00:52:36;;;;;;;12.90;9.08;;;;;;;14.61;86.11;98607.72;1609374;87;20980;-76
2021/07/22 00:55:02;;;;;;;14.85;9.60;;;;;;;14.62;86.48;98610.73;1610061;88;20928;-73
2021/07/22 00:57:29;;;;;;;14.33;9.88;;;;;;;14.62;84.94;98605.28;1610320;87;20972;-72
2021/07/22 00:59:55;;;;;;;18.77;10.08;;;;;;;14.55;86.08;98602.08;1609741;89;21075;-72
2021/07/22 01:02:21;;;;;;;15.85;9.80;;;;;;;14.57;84.98;98608.05;1609894;87;21316;-75
2021/07/22 01:04:47;;;;;;;13.90;10.00;;;;;;;14.56;84.16;98609.16;1609681;87;21039;-72
2021/07/22 01:07:13;;;;;;;13.98;9.13;;;;;;;14.51;84.18;98614.11;1609582;87;20908;-75
2021/07/22 01:09:39;;;;;;;14.07;9.28;;;;;;;14.51;83.99;98615.47;1609881;89;20984;-75
2021/07/22 01:12:05;;;;;;;18.00;10.88;;;;;;;14.51;83.78;98617.39;1609967;87;21055;-76
2021/07/22 01:14:31;;;;;;;17.70;10.60;;;;;;;14.47;83.72;98610.91;1610551;87;21024;-72
2021/07/22 01:16:57;;;;;;;16.30;10.30;;;;;;;14.40;83.49;98610.66;1555850;92;20940;-71
2021/07/22 01:19:23;;;;;;;15.58;10.25;;;;;;;14.35;83.96;98601.72;1611405;87;21007;-72
2021/07/22 01:21:49;;;;;;;17.10;10.25;;;;;;;14.24;84.00;98604.30;1605555;88;20917;-75
2021/07/22 01:24:15;;;;;;;13.18;8.93;;;;;;;14.18;84.32;98613.08;1605414;88;21103;-73
2021/07/22 01:26:41;;;;;;;14.65;9.53;;;;;;;14.14;84.46;98614.77;1605215;88;21243;-75
2021/07/22 01:29:07;;;;;;;12.58;9.25;;;;;;;14.11;85.29;98613.99;1605291;89;20952;-75
2021/07/22 01:31:33;;;;;;;14.15;10.75;;;;;;;14.09;84.99;98613.45;1605196;88;20984;-71
2021/07/22 01:33:59;;;;;;;14.18;10.30;;;;;;;14.06;84.73;98620.30;1605890;88;21112;-72
2021/07/22 01:36:25;;;;;;;13.45;9.75;;;;;;;14.00;84.66;98618.70;1579900;89;20948;-71
2021/07/22 01:38:54;;;;;;;17.92;10.23;;;;;;;13.97;85.47;98628.02;1579509;91;22041;-72
2021/07/22 01:41:20;;;;;;;14.78;9.33;;;;;;;13.98;85.04;98626.91;1579629;89;21100;-71
2021/07/22 01:43:46;;;;;;;13.65;8.20;;;;;;;13.93;84.76;98629.67;1579498;91;20925;-75
2021/07/22 01:46:20;;;;;;;14.78;8.83;;;;;;;13.90;84.89;98624.26;1568863;91;21075;-75
2021/07/22 01:48:46;;;;;;;15.38;8.55;;;;;;;13.84;86.70;98629.48;1578742;90;21052;-71
2021/07/22 01:51:11;;;;;;;12.00;8.80;;;;;;;13.83;85.96;98627.31;1605832;88;21172;-76
2021/07/22 01:53:37;;;;;;;17.82;9.93;;;;;;;13.85;88.05;98627.05;1605080;88;20971;-71
2021/07/22 01:56:04;;;;;;;12.68;9.45;;;;;;;13.88;87.77;98629.19;1605485;89;21131;-75
2021/07/22 01:58:30;;;;;;;16.80;9.35;;;;;;;13.97;87.07;98625.30;1605625;88;20988;-75
2021/07/22 02:00:56;;;;;;;11.95;8.38;;;;;;;13.97;88.51;98631.55;1605510;89;20984;-75
2021/07/22 02:03:22;;;;;;;14.13;10.03;;;;;;;13.96;88.27;98630.48;1605595;88;21298;-71
2021/07/22 02:05:48;;;;;;;19.37;10.03;;;;;;;13.97;87.01;98632.92;1555362;90;20912;-71
2021/07/22 02:08:14;;;;;;;16.32;9.03;;;;;;;13.94;87.83;98629.41;1605537;88;20885;-75
2021/07/22 02:10:40;;;;;;;13.68;8.93;;;;;;;13.94;87.83;98626.69;1605855;89;20917;-75
2021/07/22 02:13:05;;;;;;;16.30;9.33;;;;;;;13.93;86.30;98633.77;1605563;87;21029;-75
2021/07/22 02:15:31;;;;;;;12.88;8.00;;;;;;;13.94;85.42;98634.05;1605871;87;21238;-73
2021/07/22 02:17:59;;;;;;;17.57;8.85;;;;;;;13.89;85.82;98638.98;1605600;87;20952;-71
2021/07/22 02:20:25;;;;;;;16.52;8.35;;;;;;;13.90;85.69;98635.16;1605878;87;21016;-75
2021/07/22 02:22:51;;;;;;;12.28;7.78;;;;;;;13.79;86.38;98633.62;1605655;87;21515;-72
2021/07/22 02:25:17;;;;;;;13.15;9.33;;;;;;;13.76;86.96;98635.02;1605903;87;20897;-75
2021/07/22 02:27:43;;;;;;;11.95;7.83;;;;;;;13.76;86.88;98636.38;1605703;88;21491;-71
2021/07/22 02:30:10;;;;;;;16.07;8.80;;;;;;;13.71;87.28;98632.33;1605893;89;21662;-72
2021/07/22 02:32:36;;;;;;;15.30;8.05;;;;;;;13.70;86.95;98640.23;1605645;88;21056;-71
2021/07/22 02:35:01;;;;;;;15.10;9.13;;;;;;;13.66;87.42;98630.19;1605836;87;20985;-75
2021/07/22 02:37:27;;;;;;;15.43;9.18;;;;;;;13.67;87.37;98634.01;1605671;87;20901;-72
2021/07/22 02:39:53;;;;;;;19.20;9.50;;;;;;;13.54;88.00;98633.28;1605892;87;21258;-75
2021/07/22 02:42:19;;;;;;;13.30;9.30;;;;;;;13.53;86.96;98636.56;1605672;88;20897;-71
2021/07/22 02:44:45;;;;;;;12.63;8.95;;;;;;;13.46;87.47;98637.97;1605883;89;20900;-75
2021/07/22 02:47:11;;;;;;;16.40;8.30;;;;;;;13.37;88.35;98632.86;1605716;87;20866;-75
2021/07/22 02:49:38;;;;;;;11.48;8.68;;;;;;;13.34;87.79;98641.61;1605861;89;20992;-75
2021/07/22 02:52:07;;;;;;;10.58;7.60;;;;;;;13.37;87.73;98642.39;1605631;87;21306;-72
2021/07/22 02:54:34;;;;;;;13.38;8.83;;;;;;;13.41;87.91;98641.53;1584274;89;21052;-75
2021/07/22 02:57:00;;;;;;;13.60;8.10;;;;;;;13.38;88.69;98646.73;1605666;87;21092;-71
2021/07/22 02:59:26;;;;;;;12.20;8.88;;;;;;;13.43;88.23;98642.08;1605862;87;21016;-73
2021/07/22 03:01:52;;;;;;;12.20;8.00;;;;;;;13.47;87.88;98644.48;1581303;89;20955;-71
2021/07/22 03:04:18;;;;;;;13.85;7.92;;;;;;;13.44;88.30;98645.61;1607748;89;21154;-73
2021/07/22 03:06:44;;;;;;;11.97;8.53;;;;;;;13.46;88.72;98646.14;1610222;87;21003;-72
2021/07/22 03:09:10;;;;;;;10.88;7.85;;;;;;;13.47;87.93;98645.03;1611591;89;20956;-71
2021/07/22 03:11:36;;;;;;;11.40;7.65;;;;;;;13.47;88.49;98647.77;1611826;87;21590;-75
2021/07/22 03:14:02;;;;;;;11.68;8.55;;;;;;;13.49;88.06;98638.75;1611610;87;20897;-71
2021/07/22 03:16:28;;;;;;;14.55;8.45;;;;;;;13.52;86.91;98642.29;1606059;88;21174;-71
2021/07/22 03:18:53;;;;;;;15.05;8.43;;;;;;;13.49;87.46;98640.92;1605374;89;21574;-75
2021/07/22 03:21:19;;;;;;;16.52;10.23;;;;;;;13.49;87.97;98635.48;1605543;87;20917;-72
2021/07/22 03:23:45;;;;;;;10.75;7.40;;;;;;;13.46;88.04;98635.25;1605428;89;20944;-76
2021/07/22 03:26:17;;;;;;;14.15;8.38;;;;;;;13.48;87.52;98638.49;1605623;87;20913;-71
2021/07/22 03:28:44;;;;;;;11.00;7.95;;;;;;;13.48;88.12;98634.41;1605261;88;21145;-75
2021/07/22 03:31:11;;;;;;;12.82;8.30;;;;;;;13.54;87.61;98634.64;1605526;87;21465;-75
2021/07/22 03:33:37;;;;;;;10.58;7.40;;;;;;;13.62;88.56;98634.59;1605314;87;20992;-75
2021/07/22 03:36:03;;;;;;;11.50;8.00;;;;;;;13.62;87.92;98640.84;1605613;89;20948;-73
2021/07/22 03:38:30;;;;;;;12.03;7.37;;;;;;;13.67;87.71;98635.89;1605269;87;21501;-72
2021/07/22 03:40:55;;;;;;;21.90;8.13;;;;;;;13.70;87.53;98638.88;1585056;90;21103;-75
2021/07/22 03:43:21;;;;;;;14.85;8.63;;;;;;;13.68;87.09;98636.99;1605325;88;20973;-71
2021/07/22 03:45:47;;;;;;;14.03;8.18;;;;;;;13.69;87.78;98638.62;1605608;87;21606;-75
2021/07/22 03:48:13;;;;;;;13.75;8.68;;;;;;;13.66;88.52;98643.25;1605387;87;20893;-71
2021/07/22 03:50:39;;;;;;;14.47;8.78;;;;;;;13.67;88.29;98644.06;1605510;89;20892;-75
2021/07/22 03:53:05;;;;;;;13.60;7.55;;;;;;;13.68;88.50;98644.36;1605384;87;21286;-71
2021/07/22 03:55:31;;;;;;;16.67;9.18;;;;;;;13.68;88.03;98642.99;1605219;87;21108;-72
2021/07/22 03:57:57;;;;;;;10.88;7.85;;;;;;;13.73;87.83;98646.47;1605417;87;21000;-75
2021/07/22 04:00:24;;;;;;;11.40;6.85;;;;;;;13.80;87.56;98644.78;1584968;90;21629;-71
2021/07/22 04:03:04;;;;;;;11.55;7.53;;;;;;;13.86;87.26;98642.84;1605321;88;20969;-71
2021/07/22 04:05:30;;;;;;;10.43;7.25;;;;;;;13.85;87.51;98646.12;1605482;87;21877;-75
2021/07/22 04:07:57;;;;;;;15.20;8.33;;;;;;;13.88;87.61;98647.45;1610366;87;20964;-76
2021/07/22 04:10:24;;;;;;;11.30;7.62;;;;;;;13.89;87.35;98642.26;1609900;88;21487;-72
2021/07/22 04:12:58;;;;;;;12.30;9.13;;;;;;;13.95;87.06;98650.11;1609749;87;21016;-71
2021/07/22 04:15:24;;;;;;;14.03;9.83;;;;;;;13.98;86.87;98645.44;1578835;90;21048;-71
2021/07/22 04:17:51;;;;;;;16.15;9.23;;;;;;;14.00;86.59;98647.88;1609660;87;21153;-74
2021/07/22 04:20:18;;;;;;;17.55;9.43;;;;;;;14.05;86.91;98650.01;1581934;90;21455;-75
2021/07/22 04:22:44;;;;;;;13.25;9.35;;;;;;;14.09;87.17;98645.59;1609484;87;21143;-71
2021/07/22 04:25:10;;;;;;;20.00;7.85;;;;;;;14.11;87.03;98643.42;1609958;87;20920;-72
2021/07/22 04:27:36;;;;;;;13.90;7.50;;;;;;;14.16;86.55;98647.18;1609788;87;21457;-71
2021/07/22 04:30:03;;;;;;;10.00;7.95;;;;;;;14.19;86.78;98648.80;1609762;87;21179;-75
2021/07/22 04:32:29;;;;;;;10.40;7.45;;;;;;;14.20;86.49;98642.80;1581475;89;20968;-74
2021/07/22 04:34:55;;;;;;;10.32;7.08;;;;;;;14.25;86.31;98649.54;1609912;89;20991;-75
2021/07/22 04:37:20;;;;;;;13.95;8.20;;;;;;;14.27;86.36;98647.33;1610037;87;20932;-71
2021/07/22 04:39:46;;;;;;;11.80;7.22;;;;;;;14.30;86.60;98650.31;1583647;89;20988;-75
2021/07/22 04:42:12;;;;;;;11.88;8.05;;;;;;;14.34;85.94;98651.34;1609765;87;21273;-71
2021/07/22 04:44:38;;;;;;;12.73;7.42;;;;;;;14.36;85.66;98651.89;1609620;87;20905;-74
2021/07/22 04:47:05;;;;;;;11.53;9.08;;;;;;;14.39;85.67;98654.58;1609675;87;20908;-71
2021/07/22 04:49:30;;;;;;;13.65;8.78;;;;;;;14.43;86.10;98656.16;1609608;87;21053;-75
2021/07/22 04:51:59;;;;;;;15.35;9.18;;;;;;;14.51;86.10;98652.84;1609979;87;20893;-75
2021/07/22 04:54:25;;;;;;;13.80;8.20;;;;;;;14.68;86.26;98653.18;1609701;88;26291;-71
2021/07/22 04:56:51;;;;;;;20.52;8.90;;;;;;;14.81;85.86;98647.59;1609674;87;20965;-71
2021/07/22 04:59:17;;;;;;;11.00;7.47;;;;;;;14.98;85.26;98656.65;1609806;88;20932;-74
2021/07/22 05:01:43;;;;;;;14.68;8.68;;;;;;;15.04;84.85;98663.12;1609832;87;20944;-75
2021/07/22 05:04:15;;;;;;;12.98;7.80;;;;;;;15.08;85.19;98656.52;1609717;88;20948;-71
2021/07/22 05:06:37;;;;;;;11.57;7.40;;;;;;;15.22;84.65;98648.67;1615950;86;21951;-75
2021/07/22 05:09:03;;;;;;;14.50;8.45;;;;;;;15.30;84.21;98652.66;1594652;89;20921;-71
2021/07/22 05:11:30;;;;;;;16.20;9.85;;;;;;;15.33;83.97;98653.98;1583231;89;20919;-76
2021/07/22 05:13:56;;;;;;;18.12;10.23;;;;;;;15.44;84.51;98654.89;1598680;89;21000;-76
2021/07/22 05:16:23;;;;;;;15.70;9.63;;;;;;;15.63;84.06;98655.46;1583211;89;20951;-75
2021/07/22 05:18:51;;;;;;;11.33;8.18;;;;;;;15.80;83.71;98647.53;1583017;90;21103;-74
2021/07/22 05:21:17;;;;;;;13.13;7.50;;;;;;;16.04;83.19;98652.31;1583159;90;21060;-72
2021/07/22 05:23:43;;;;;;;19.75;9.30;;;;;;;16.26;82.18;98648.12;1598203;88;21512;-76
2021/07/22 05:26:11;;;;;;;12.25;8.80;;;;;;;16.33;81.29;98650.72;1583327;90;20980;-75
2021/07/22 05:28:38;;;;;;;16.62;8.45;;;;;;;16.37;80.85;98655.02;1597743;89;20989;-75
2021/07/22 05:31:08;;;;;;;12.95;8.73;;;;;;;16.44;80.72;98655.99;1583266;90;21480;-71
2021/07/22 05:33:35;;;;;;;18.00;8.83;;;;;;;16.55;80.80;98650.57;1599187;89;21413;-71
2021/07/22 05:36:08;;;;;;;11.30;8.10;;;;;;;16.68;80.08;98654.44;1594276;90;20985;-71
2021/07/22 05:38:36;;;;;;;14.45;8.85;;;;;;;16.74;80.05;98646.39;1594240;88;20985;-75
2021/07/22 05:41:04;;;;;;;12.43;8.28;;;;;;;16.82;79.35;98645.68;1594618;89;21425;-75
2021/07/22 05:43:30;;;;;;;11.83;8.10;;;;;;;17.06;78.85;98641.35;1594529;88;21453;-72
2021/07/22 05:45:56;;;;;;;14.58;8.33;;;;;;;17.28;76.22;98637.87;1593507;90;20881;-72
2021/07/22 05:48:22;;;;;;;10.48;7.87;;;;;;;17.64;75.73;98638.65;1583211;89;20976;-72
2021/07/22 05:50:49;;;;;;;11.30;8.55;;;;;;;17.86;76.01;98638.41;1583313;90;20992;-76
2021/07/22 05:53:18;;;;;;;10.90;7.58;;;;;;;17.87;74.12;98634.02;1583166;89;21068;-72
2021/07/22 05:55:44;;;;;;;13.28;7.97;;;;;;;17.93;73.86;98630.56;1590241;89;21114;-76
2021/07/22 05:58:10;;;;;;;11.28;8.50;;;;;;;18.18;73.33;98636.77;1598274;88;20869;-75
2021/07/22 06:00:36;;;;;;;11.35;7.62;;;;;;;18.40;73.47;98629.63;1598487;89;20989;-75
2021/07/22 06:03:04;;;;;;;10.20;7.28;;;;;;;18.56;72.17;98635.75;1598213;88;21048;-75
2021/07/22 06:05:31;;;;;;;12.90;7.37;;;;;;;18.60;73.02;98637.28;1582958;90;21000;-76
2021/07/22 06:07:58;;;;;;;13.10;7.58;;;;;;;18.56;72.79;98628.89;1578050;89;21326;-76
2021/07/22 06:10:25;;;;;;;9.35;6.72;;;;;;;18.48;73.25;98627.48;1576962;91;21469;-76
2021/07/22 06:12:51;;;;;;;12.47;7.60;;;;;;;18.66;73.42;98626.45;1607187;88;20969;-72
2021/07/22 06:15:16;;;;;;;16.10;8.03;;;;;;;18.59;73.09;98621.95;1581322;89;20908;-76
2021/07/22 06:17:43;;;;;;;12.65;7.92;;;;;;;18.76;73.89;98630.83;1582243;89;21017;-77
2021/07/22 06:20:10;;;;;;;12.50;8.28;;;;;;;19.03;73.32;98629.77;1580057;90;21322;-77
2021/07/22 06:22:36;;;;;;;13.95;8.33;;;;;;;19.28;72.24;98630.37;1577254;89;21437;-72
2021/07/22 06:25:03;;;;;;;13.13;8.83;;;;;;;19.28;71.83;98624.06;1607186;88;20929;-77
2021/07/22 06:27:29;;;;;;;10.23;7.50;;;;;;;19.25;71.12;98626.09;1608297;88;20959;-72
2021/07/22 06:29:55;;;;;;;10.60;7.90;;;;;;;19.23;71.28;98623.67;1607801;88;20980;-77
2021/07/22 06:32:21;;;;;;;16.20;8.05;;;;;;;19.23;70.36;98623.67;1607350;88;21119;-73
2021/07/22 06:34:46;;;;;;;10.13;7.50;;;;;;;19.19;70.36;98628.74;1607208;88;21072;-72
2021/07/22 06:37:13;;;;;;;16.17;8.55;;;;;;;19.37;70.02;98623.50;1607293;88;20912;-74
2021/07/22 06:39:39;;;;;;;11.68;8.38;;;;;;;19.33;69.79;98628.05;1607640;88;21013;-72
2021/07/22 06:42:05;;;;;;;12.15;7.53;;;;;;;19.39;70.02;98627.54;1607397;88;20963;-72
2021/07/22 06:44:31;;;;;;;14.03;8.03;;;;;;;19.39;69.64;98624.79;1581528;89;22046;-72
2021/07/22 06:46:57;;;;;;;12.53;7.40;;;;;;;19.44;70.02;98631.52;1581665;90;21606;-74
2021/07/22 06:49:23;;;;;;;8.35;7.20;;;;;;;19.71;69.83;98626.84;1566646;90;20943;-77
2021/07/22 06:51:50;;;;;;;12.35;8.25;;;;;;;19.95;69.53;98623.58;1607236;88;20960;-73
2021/07/22 06:54:16;;;;;;;9.85;7.12;;;;;;;20.03;67.95;98617.25;1580664;90;21056;-76
2021/07/22 06:56:42;;;;;;;10.15;7.08;;;;;;;20.27;68.58;98623.02;1607297;88;21197;-76
2021/07/22 06:59:08;;;;;;;14.05;7.50;;;;;;;20.31;65.71;98622.34;1607703;88;20897;-76
2021/07/22 07:01:34;;;;;;;11.85;7.20;;;;;;;20.38;65.03;98618.52;1607821;88;20928;-72
2021/07/22 07:04:02;;;;;;;12.50;7.72;;;;;;;20.60;66.19;98616.94;1607424;89;21460;-76
2021/07/22 07:06:28;;;;;;;10.50;7.62;;;;;;;20.83;65.25;98615.50;1608117;87;21006;-72
2021/07/22 07:08:54;;;;;;;11.68;7.67;;;;;;;21.03;63.86;98611.76;1632157;88;21193;-72
2021/07/22 07:11:19;;;;;;;12.10;7.72;;;;;;;21.12;63.81;98611.94;1632755;86;20993;-73
2021/07/22 07:13:45;;;;;;;13.53;8.40;;;;;;;21.27;61.46;98613.87;1632804;87;20958;-73
2021/07/22 07:16:11;;;;;;;11.85;7.87;;;;;;;21.45;62.02;98611.23;1593928;90;21436;-76
2021/07/22 07:18:37;;;;;;;13.65;8.03;;;;;;;21.72;61.27;98610.44;1594391;88;20948;-73
2021/07/22 07:21:04;;;;;;;13.72;7.87;;;;;;;21.99;60.82;98606.27;1574779;90;22505;-73
2021/07/22 07:23:32;;;;;;;12.05;7.95;;;;;;;22.13;60.29;98609.00;1594035;88;20957;-72
2021/07/22 07:25:58;;;;;;;14.38;7.40;;;;;;;22.29;60.03;98603.59;1594119;89;21078;-73
2021/07/22 07:28:24;;;;;;;11.70;7.72;;;;;;;22.36;58.67;98601.08;1594257;88;21057;-77
2021/07/22 07:30:51;;;;;;;13.58;7.45;;;;;;;22.32;57.79;98599.37;1594570;90;21060;-77
2021/07/22 07:33:17;;;;;;;12.35;7.53;;;;;;;22.59;55.58;98598.69;1594276;88;21930;-77
2021/07/22 07:35:43;;;;;;;19.07;7.78;;;;;;;22.79;54.55;98598.33;1594098;90;20913;-73
2021/07/22 07:38:08;;;;;;;10.43;8.00;;;;;;;23.08;56.51;98587.06;1582948;89;21023;-77
2021/07/22 07:40:34;;;;;;;13.35;8.30;;;;;;;23.69;54.53;98589.45;1598248;89;21466;-77
2021/07/22 07:43:00;;;;;;;17.25;8.25;;;;;;;23.81;52.81;98582.45;1599067;89;20920;-73
2021/07/22 07:45:26;;;;;;;10.13;7.17;;;;;;;24.42;53.80;98592.61;1593674;89;22036;-77
2021/07/22 07:47:52;;;;;;;13.08;6.67;;;;;;;24.89;52.48;98589.59;1593913;88;20953;-77
2021/07/22 07:50:18;;;;;;;11.30;6.67;;;;;;;25.12;50.28;98576.66;1597381;88;21555;-73
2021/07/22 07:52:45;;;;;;;12.13;8.20;;;;;;;25.31;49.45;98575.32;1628459;86;21006;-77
2021/07/22 07:55:12;;;;;;;13.60;7.33;;;;;;;24.90;46.69;98584.26;1627544;88;21447;-74
2021/07/22 07:57:38;;;;;;;14.03;6.87;;;;;;;25.63;47.91;98584.06;1627892;86;21440;-76
2021/07/22 08:00:06;;;;;;;14.70;7.15;;;;;;;26.18;48.90;98578.63;1628353;87;21007;-77
2021/07/22 08:02:31;;;;;;;15.65;6.65;;;;;;;26.45;47.68;98568.98;1628033;86;21045;-75
2021/07/22 08:05:00;;;;;;;14.68;6.33;;;;;;;26.87;47.23;98575.22;1628034;88;20895;-74
2021/07/22 08:07:26;;;;;;;9.35;6.30;;;;;;;27.23;45.13;98574.37;1630421;86;21053;-74
2021/07/22 08:09:52;;;;;;;10.00;6.80;;;;;;;26.71;40.26;98577.35;1635283;87;21818;-77
2021/07/22 08:12:18;;;;;;;11.18;7.22;;;;;;;26.96;43.84;98573.56;1635217;86;21072;-77
2021/07/22 08:14:45;;;;;;;9.38;5.85;;;;;;;26.75;42.03;98570.45;1614961;87;21640;-75
2021/07/22 08:17:15;;;;;;;7.80;5.77;;;;;;;27.00;40.21;98568.84;1635501;86;20978;-74
2021/07/22 08:19:41;;;;;;;9.05;5.75;;;;;;;27.00;40.21;98568.84;1635237;87;21444;-74
2021/07/22 08:22:10;;;;;;;7.33;5.35;;;;;;;27.21;40.84;98566.99;1610209;87;21275;-74
2021/07/22 08:24:35;;;;;;;12.15;5.00;;;;;;;26.99;38.45;98565.26;1610160;89;20988;-74
2021/07/22 08:27:01;;;;;;;9.95;5.95;;;;;;;27.60;40.06;98566.08;1610170;87;21031;-77
2021/07/22 08:29:27;;;;;;;10.88;5.83;;;;;;;27.48;38.26;98573.30;1610191;89;21453;-77
2021/07/22 08:31:53;;;;;;;12.55;5.50;;;;;;;27.69;38.50;98568.03;1610220;87;20976;-74
2021/07/22 08:34:20;;;;;;;7.97;5.78;;;;;;;28.41;40.14;98568.18;1603274;89;21289;-74
2021/07/22 08:36:46;;;;;;;9.73;5.10;;;;;;;27.86;36.86;98573.59;1603141;88;21460;-77
2021/07/22 08:39:11;;;;;;;8.75;5.35;;;;;;;28.23;36.75;98570.78;1603190;89;20913;-77
2021/07/22 08:41:44;;;;;;;7.95;4.33;;;;;;;28.44;36.85;98566.01;1603241;88;20936;-77
2021/07/22 08:44:10;;;;;;;12.82;6.42;;;;;;;28.50;35.96;98567.27;1603464;89;21512;-74
2021/07/22 08:46:36;;;;;;;7.15;5.25;;;;;;;28.94;36.29;98561.63;1612254;86;21352;-77
2021/07/22 08:49:02;;;;;;;9.65;4.58;;;;;;;29.57;33.85;98554.03;1611898;88;21065;-77
2021/07/22 08:51:28;;;;;;;6.25;3.95;;;;;;;29.87;34.04;98558.48;1630498;86;21596;-77
2021/07/22 08:53:54;;;;;;;6.75;3.70;;;;;;;30.02;31.85;98551.15;1630331;88;21050;-74
2021/07/22 08:56:24;;;;;;;9.40;4.08;;;;;;;29.81;31.53;98555.27;1630454;88;21037;-74
2021/07/22 08:58:50;;;;;;;7.70;4.58;;;;;;;29.71;31.22;98553.26;1610617;89;21868;-78
2021/07/22 09:01:15;;;;;;;6.17;4.80;;;;;;;30.12;32.62;98550.19;1610180;89;20904;-77
2021/07/22 09:03:41;;;;;;;7.90;5.28;;;;;;;28.93;31.77;98547.48;1610010;87;21593;-75
2021/07/22 09:06:14;;;;;;;8.13;5.55;;;;;;;29.20;33.05;98551.42;1610032;89;20896;-78
2021/07/22 09:08:41;;;;;;;5.72;4.25;;;;;;;28.64;33.58;98550.66;1587609;88;20965;-77
2021/07/22 09:11:09;;;;;;;7.22;4.55;;;;;;;28.00;34.40;98552.05;1607223;88;21533;-75
2021/07/22 09:13:36;;;;;;;6.33;4.03;;;;;;;28.28;33.91;98556.48;1607021;88;21009;-74
2021/07/22 09:16:02;;;;;;;7.00;5.17;;;;;;;28.13;35.52;98549.20;1607090;88;20977;-77
2021/07/22 09:18:36;;;;;;;6.90;5.65;;;;;;;27.57;36.82;98546.57;1607090;88;20977;-76
2021/07/22 09:21:23;;;;;;;7.70;5.85;;;;;;;27.18;38.28;98549.68;1591102;89;20953;-77
2021/07/22 09:24:10;;;;;;;9.73;5.47;;;;;;;26.69;38.88;98551.33;1607422;88;21461;-74
2021/07/22 09:26:39;;;;;;;7.72;5.30;;;;;;;26.41;39.74;98556.44;1607303;88;21049;-73
2021/07/22 09:29:08;;;;;;;9.68;5.70;;;;;;;25.47;39.83;98550.30;1607313;88;21052;-74
2021/07/22 09:31:34;;;;;;;7.90;5.53;;;;;;;25.11;42.11;98552.87;1607210;88;21012;-73
2021/07/22 09:34:00;;;;;;;8.85;5.62;;;;;;;25.35;41.66;98553.78;1607660;88;20996;-74
2021/07/22 09:36:31;;;;;;;11.28;5.72;;;;;;;25.02;42.22;98544.77;1606976;88;22033;-76
2021/07/22 09:39:24;;;;;;;7.33;5.72;;;;;;;25.21;42.16;98545.95;1607501;88;21016;-74
2021/07/22 09:42:05;;;;;;;8.30;6.15;;;;;;;25.20;40.89;98547.92;1608175;88;20968;-73
2021/07/22 09:44:36;;;;;;;9.60;5.85;;;;;;;24.98;42.14;98548.61;1607644;88;21045;-72
2021/07/22 09:47:05;;;;;;;9.73;5.08;;;;;;;25.03;42.40;98550.53;1607425;88;21024;-77
2021/07/22 09:49:39;;;;;;;7.30;4.80;;;;;;;24.99;41.91;98546.05;1607656;88;21882;-74
2021/07/22 09:52:20;;;;;;;8.15;5.75;;;;;;;25.21;41.15;98544.56;1581365;89;21436;-73
2021/07/22 09:54:45;;;;;;;7.75;5.37;;;;;;;25.56;41.31;98545.91;1581268;89;21071;-77
2021/07/22 09:57:17;;;;;;;9.73;5.60;;;;;;;25.81;41.06;98542.26;1578055;89;21527;-78
2021/07/22 09:59:45;;;;;;;9.10;5.50;;;;;;;25.40;39.54;98534.09;1609551;88;21027;-76
2021/07/22 10:02:18;;;;;;;11.38;8.53;;;;;;;27.03;38.98;98538.11;1609628;87;21314;-73
2021/07/22 10:04:49;;;;;;;8.70;5.72;;;;;;;27.45;38.94;98528.95;1608931;88;21028;-75
2021/07/22 10:07:15;;;;;;;8.93;5.03;;;;;;;29.21;36.48;98530.70;1609580;87;21059;-77
2021/07/22 10:09:41;;;;;;;12.05;5.80;;;;;;;30.17;31.50;98523.27;1609646;87;20901;-78
2021/07/22 10:12:08;;;;;;;9.13;5.70;;;;;;;29.80;32.19;98526.34;1581748;89;21605;-75
2021/07/22 10:14:34;;;;;;;10.70;5.95;;;;;;;28.52;34.66;98537.61;1609756;89;21153;-77
2021/07/22 10:17:00;;;;;;;13.70;7.80;;;;;;;27.63;36.42;98533.92;1609811;87;21646;-78
2021/07/22 10:19:27;;;;;;;17.65;8.80;;;;;;;26.59;40.32;98538.66;1609802;88;21076;-75
2021/07/22 10:21:53;;;;;;;13.38;8.58;;;;;;;26.03;41.14;98531.74;1610948;87;21593;-78
2021/07/22 10:24:21;;;;;;;13.75;7.90;;;;;;;25.30;42.72;98532.70;1610143;88;20909;-75
2021/07/22 10:26:47;;;;;;;15.85;9.40;;;;;;;24.92;43.29;98534.22;1609795;87;22083;-78
2021/07/22 10:29:12;;;;;;;14.15;8.50;;;;;;;24.17;45.60;98537.14;1609873;88;20924;-75
2021/07/22 10:31:45;;;;;;;13.80;8.55;;;;;;;24.05;45.25;98539.42;1609655;87;21642;-74
2021/07/22 10:34:11;;;;;;;14.60;7.45;;;;;;;23.68;46.29;98533.89;1611254;87;21012;-77
2021/07/22 10:36:38;;;;;;;18.05;8.90;;;;;;;23.43;47.36;98538.70;1609618;87;21008;-77
2021/07/22 10:39:04;;;;;;;16.93;9.70;;;;;;;23.21;49.09;98542.22;1610444;88;21206;-74
2021/07/22 10:41:40;;;;;;;20.35;10.23;;;;;;;23.13;49.34;98539.02;1609936;87;21004;-74
2021/07/22 10:44:16;;;;;;;18.80;11.55;;;;;;;23.01;49.39;98537.68;1609996;87;20984;-74
2021/07/22 10:47:02;;;;;;;21.52;10.35;;;;;;;22.85;50.26;98540.35;1589731;87;21103;-74
2021/07/22 10:49:42;;;;;;;162.82;17.75;;;;;;;22.70;49.96;98534.12;1610129;87;21479;-76
2021/07/22 10:52:13;;;;;;;63.70;11.15;;;;;;;22.66;50.19;98539.55;1609824;87;21188;-76
2021/07/22 10:54:49;;;;;;;21.87;9.80;;;;;;;22.66;50.07;98536.78;1610198;87;21056;-72
2021/07/22 10:57:37;;;;;;;21.68;12.37;;;;;;;22.63;51.09;98542.17;1609248;87;21045;-73
2021/07/22 11:00:07;;;;;;;15.15;9.40;;;;;;;22.51;52.47;98539.66;1609810;89;21059;-73
2021/07/22 11:02:47;;;;;;;17.42;10.50;;;;;;;22.58;51.63;98535.52;1609634;87;21051;-73
2021/07/22 11:05:27;;;;;;;14.03;8.98;;;;;;;22.53;50.65;98534.59;1596154;87;21545;-77
2021/07/22 11:08:22;;;;;;;11.80;8.00;;;;;;;22.60;50.42;98528.50;1609996;87;21068;-76
2021/07/22 11:10:53;;;;;;;12.40;7.65;;;;;;;22.64;50.35;98521.69;1605441;87;21433;-76
2021/07/22 11:13:40;;;;;;;12.23;7.95;;;;;;;22.66;49.99;98523.55;1605432;87;20981;-73
2021/07/22 11:16:22;;;;;;;15.40;7.05;;;;;;;22.71;49.79;98530.20;1605489;88;20996;-77
2021/07/22 11:18:59;;;;;;;13.70;7.55;;;;;;;22.65;49.75;98531.61;1605286;89;21233;-72
2021/07/22 11:21:33;;;;;;;10.98;6.72;;;;;;;22.53;50.70;98529.65;1605221;87;21008;-76
2021/07/22 11:24:17;;;;;;;10.60;7.28;;;;;;;22.58;50.68;98525.28;1605485;89;21024;-74
2021/07/22 11:26:43;;;;;;;9.80;8.20;;;;;;;22.63;50.40;98531.13;1585099;89;21083;-73